sensor_id;sensor_type;location;lat;lon;timestamp;temperature;humidity
52495;DHT22;38405;53.212;5.660;2023-06-22T00:00:49;15.50;99.90
52495;DHT22;38405;53.212;5.660;2023-06-22T00:03:15;15.50;99.90
52495;DHT22;38405;53.212;5.660;2023-06-22T00:05:41;15.40;99.90
52495;DHT22;38405;53.212;5.660;2023-06-22T00:08:06;15.40;99.90
52495;DHT22;38405;53.212;5.660;2023-06-22T00:10:32;15.40;99.90
52495;DHT22;38405;53.212;5.660;2023-06-22T00:12:58;15.30;99.90
52495;DHT22;38405;53.212;5.660;2023-06-22T00:15:23;15.20;99.90
52495;DHT22;38405;53.212;5.660;2023-06-22T00:17:50;15.20;99.90
52495;DHT22;38405;53.212;5.660;2023-06-22T00:20:16;15.20;99.90
52495;DHT22;38405;53.212;5.660;2023-06-22T00:22:44;15.10;99.90
52495;DHT22;38405;53.212;5.660;2023-06-22T00:25:10;15.00;99.90
52495;DHT22;38405;53.212;5.660;2023-06-22T00:27:36;14.90;99.90
52495;DHT22;38405;53.212;5.660;2023-06-22T00:30:02;15.00;99.90
52495;DHT22;38405;53.212;5.660;2023-06-22T00:32:28;15.00;99.90
52495;DHT22;38405;53.212;5.660;2023-06-22T00:34:54;15.20;99.90
52495;DHT22;38405;53.212;5.660;2023-06-22T00:37:20;15.30;99.90
52495;DHT22;38405;53.212;5.660;2023-06-22T00:39:48;15.40;99.90
52495;DHT22;38405;53.212;5.660;2023-06-22T00:42:14;15.40;99.90
52495;DHT22;38405;53.212;5.660;2023-06-22T00:44:39;15.40;99.90
52495;DHT22;38405;53.212;5.660;2023-06-22T00:47:06;15.40;99.90
52495;DHT22;38405;53.212;5.660;2023-06-22T00:49:32;15.40;99.90
52495;DHT22;38405;53.212;5.660;2023-06-22T00:51:57;15.30;99.90
52495;DHT22;38405;53.212;5.660;2023-06-22T00:54:24;15.20;99.90
52495;DHT22;38405;53.212;5.660;2023-06-22T00:56:53;15.10;99.90
52495;DHT22;38405;53.212;5.660;2023-06-22T00:59:21;15.20;99.90
52495;DHT22;38405;53.212;5.660;2023-06-22T01:01:47;15.30;99.90
52495;DHT22;38405;53.212;5.660;2023-06-22T01:04:13;15.40;99.90
52495;DHT22;38405;53.212;5.660;2023-06-22T01:06:52;15.50;99.90
52495;DHT22;38405;53.212;5.660;2023-06-22T01:09:26;15.50;99.90
52495;DHT22;38405;53.212;5.660;2023-06-22T01:12:02;15.60;99.90
52495;DHT22;38405;53.212;5.660;2023-06-22T01:14:52;15.50;99.90
52495;DHT22;38405;53.212;5.660;2023-06-22T01:17:21;15.40;99.90
52495;DHT22;38405;53.212;5.660;2023-06-22T01:19:50;15.30;99.90
52495;DHT22;38405;53.212;5.660;2023-06-22T01:22:24;15.20;99.90
52495;DHT22;38405;53.212;5.660;2023-06-22T01:27:59;15.20;99.90
52495;DHT22;38405;53.212;5.660;2023-06-22T01:30:27;15.30;99.90
52495;DHT22;38405;53.212;5.660;2023-06-22T01:32:56;15.30;99.90
52495;DHT22;38405;53.212;5.660;2023-06-22T01:35:22;15.30;99.90
52495;DHT22;38405;53.212;5.660;2023-06-22T01:37:48;15.40;99.90
52495;DHT22;38405;53.212;5.660;2023-06-22T01:40:15;15.40;99.90
52495;DHT22;38405;53.212;5.660;2023-06-22T01:42:41;15.40;99.90
52495;DHT22;38405;53.212;5.660;2023-06-22T01:45:10;15.40;99.90
52495;DHT22;38405;53.212;5.660;2023-06-22T01:47:36;15.40;99.90
52495;DHT22;38405;53.212;5.660;2023-06-22T01:50:03;15.50;99.90
52495;DHT22;38405;53.212;5.660;2023-06-22T01:52:29;15.50;99.90
52495;DHT22;38405;53.212;5.660;2023-06-22T01:54:54;15.60;99.90
52495;DHT22;38405;53.212;5.660;2023-06-22T01:57:20;15.60;99.90
52495;DHT22;38405;53.212;5.660;2023-06-22T02:00:04;15.60;99.90
52495;DHT22;38405;53.212;5.660;2023-06-22T02:02:40;15.60;99.90
52495;DHT22;38405;53.212;5.660;2023-06-22T02:05:09;15.60;99.90
52495;DHT22;38405;53.212;5.660;2023-06-22T02:07:46;15.70;99.90
52495;DHT22;38405;53.212;5.660;2023-06-22T02:10:14;15.60;99.90
52495;DHT22;38405;53.212;5.660;2023-06-22T02:12:42;15.70;99.90
52495;DHT22;38405;53.212;5.660;2023-06-22T02:15:10;15.60;99.90
52495;DHT22;38405;53.212;5.660;2023-06-22T02:17:36;15.70;99.90
52495;DHT22;38405;53.212;5.660;2023-06-22T02:20:03;15.70;99.90
52495;DHT22;38405;53.212;5.660;2023-06-22T02:22:34;15.70;99.90
52495;DHT22;38405;53.212;5.660;2023-06-22T02:24:59;15.70;99.90
52495;DHT22;38405;53.212;5.660;2023-06-22T02:27:25;15.70;99.90
52495;DHT22;38405;53.212;5.660;2023-06-22T02:29:51;15.70;99.90
52495;DHT22;38405;53.212;5.660;2023-06-22T02:32:17;15.70;99.90
52495;DHT22;38405;53.212;5.660;2023-06-22T02:34:43;15.80;99.90
52495;DHT22;38405;53.212;5.660;2023-06-22T02:37:16;15.80;99.90
52495;DHT22;38405;53.212;5.660;2023-06-22T02:39:41;15.80;99.90
52495;DHT22;38405;53.212;5.660;2023-06-22T02:42:07;15.80;99.90
52495;DHT22;38405;53.212;5.660;2023-06-22T02:44:33;15.80;99.90
52495;DHT22;38405;53.212;5.660;2023-06-22T02:46:59;15.90;99.90
52495;DHT22;38405;53.212;5.660;2023-06-22T02:49:24;15.90;99.90
52495;DHT22;38405;53.212;5.660;2023-06-22T02:51:50;15.90;99.90
52495;DHT22;38405;53.212;5.660;2023-06-22T02:54:16;16.00;99.90
52495;DHT22;38405;53.212;5.660;2023-06-22T02:56:42;16.00;99.90
52495;DHT22;38405;53.212;5.660;2023-06-22T02:59:11;16.00;99.90
52495;DHT22;38405;53.212;5.660;2023-06-22T03:01:37;16.10;99.90
52495;DHT22;38405;53.212;5.660;2023-06-22T03:04:06;16.10;99.90
52495;DHT22;38405;53.212;5.660;2023-06-22T03:06:32;16.10;99.90
52495;DHT22;38405;53.212;5.660;2023-06-22T03:09:04;16.20;99.90
52495;DHT22;38405;53.212;5.660;2023-06-22T03:11:31;16.20;99.90
52495;DHT22;38405;53.212;5.660;2023-06-22T03:13:56;16.20;99.90
52495;DHT22;38405;53.212;5.660;2023-06-22T03:16:22;16.20;99.90
52495;DHT22;38405;53.212;5.660;2023-06-22T03:18:48;16.20;99.90
52495;DHT22;38405;53.212;5.660;2023-06-22T03:21:13;16.10;99.90
52495;DHT22;38405;53.212;5.660;2023-06-22T03:23:41;16.10;99.90
52495;DHT22;38405;53.212;5.660;2023-06-22T03:26:08;16.20;99.90
52495;DHT22;38405;53.212;5.660;2023-06-22T03:28:34;16.20;99.90
52495;DHT22;38405;53.212;5.660;2023-06-22T03:31:00;16.20;99.90
52495;DHT22;38405;53.212;5.660;2023-06-22T03:33:26;16.20;99.90
52495;DHT22;38405;53.212;5.660;2023-06-22T03:35:51;16.20;99.90
52495;DHT22;38405;53.212;5.660;2023-06-22T03:38:17;16.20;99.90
52495;DHT22;38405;53.212;5.660;2023-06-22T03:40:43;16.20;99.90
52495;DHT22;38405;53.212;5.660;2023-06-22T03:43:09;16.20;99.90
52495;DHT22;38405;53.212;5.660;2023-06-22T03:45:34;16.20;99.90
52495;DHT22;38405;53.212;5.660;2023-06-22T03:48:01;16.20;99.90
52495;DHT22;38405;53.212;5.660;2023-06-22T03:50:27;16.20;99.90
52495;DHT22;38405;53.212;5.660;2023-06-22T03:52:55;16.10;99.90
52495;DHT22;38405;53.212;5.660;2023-06-22T03:55:21;16.10;99.90
52495;DHT22;38405;53.212;5.660;2023-06-22T03:57:47;16.10;99.90
52495;DHT22;38405;53.212;5.660;2023-06-22T04:00:13;16.10;99.90
52495;DHT22;38405;53.212;5.660;2023-06-22T04:02:41;16.10;99.90
52495;DHT22;38405;53.212;5.660;2023-06-22T04:05:08;16.10;99.90
52495;DHT22;38405;53.212;5.660;2023-06-22T04:07:34;16.00;99.90
52495;DHT22;38405;53.212;5.660;2023-06-22T04:09:59;16.00;99.90
52495;DHT22;38405;53.212;5.660;2023-06-22T04:12:26;16.00;99.90
52495;DHT22;38405;53.212;5.660;2023-06-22T04:14:52;15.90;99.90
52495;DHT22;38405;53.212;5.660;2023-06-22T04:17:17;15.90;99.90
52495;DHT22;38405;53.212;5.660;2023-06-22T04:19:44;15.90;99.90
52495;DHT22;38405;53.212;5.660;2023-06-22T04:22:10;16.00;99.90
52495;DHT22;38405;53.212;5.660;2023-06-22T04:24:36;16.00;99.90
52495;DHT22;38405;53.212;5.660;2023-06-22T04:27:01;16.00;99.90
52495;DHT22;38405;53.212;5.660;2023-06-22T04:29:29;16.10;99.90
52495;DHT22;38405;53.212;5.660;2023-06-22T04:31:58;16.10;99.90
52495;DHT22;38405;53.212;5.660;2023-06-22T04:34:29;16.20;99.90
52495;DHT22;38405;53.212;5.660;2023-06-22T04:36:54;16.20;99.90
52495;DHT22;38405;53.212;5.660;2023-06-22T04:39:21;16.30;99.90
52495;DHT22;38405;53.212;5.660;2023-06-22T04:41:47;16.30;99.90
52495;DHT22;38405;53.212;5.660;2023-06-22T04:44:18;16.40;99.90
52495;DHT22;38405;53.212;5.660;2023-06-22T04:46:53;16.50;99.90
52495;DHT22;38405;53.212;5.660;2023-06-22T04:49:26;16.50;99.90
52495;DHT22;38405;53.212;5.660;2023-06-22T04:52:02;16.60;99.90
52495;DHT22;38405;53.212;5.660;2023-06-22T04:54:27;16.60;99.90
52495;DHT22;38405;53.212;5.660;2023-06-22T04:56:53;16.60;99.90
52495;DHT22;38405;53.212;5.660;2023-06-22T04:59:26;16.60;99.90
52495;DHT22;38405;53.212;5.660;2023-06-22T05:01:54;16.70;99.90
52495;DHT22;38405;53.212;5.660;2023-06-22T05:04:21;16.70;99.90
52495;DHT22;38405;53.212;5.660;2023-06-22T05:06:47;16.90;99.90
52495;DHT22;38405;53.212;5.660;2023-06-22T05:09:13;17.00;99.90
52495;DHT22;38405;53.212;5.660;2023-06-22T05:11:39;17.20;99.90
52495;DHT22;38405;53.212;5.660;2023-06-22T05:14:04;17.40;99.90
52495;DHT22;38405;53.212;5.660;2023-06-22T05:16:30;17.50;99.90
52495;DHT22;38405;53.212;5.660;2023-06-22T05:18:56;17.70;99.90
52495;DHT22;38405;53.212;5.660;2023-06-22T05:21:26;17.70;99.90
52495;DHT22;38405;53.212;5.660;2023-06-22T05:23:53;17.80;99.90
52495;DHT22;38405;53.212;5.660;2023-06-22T05:26:19;17.90;99.90
52495;DHT22;38405;53.212;5.660;2023-06-22T05:28:46;18.00;99.90
52495;DHT22;38405;53.212;5.660;2023-06-22T05:31:16;18.10;99.90
52495;DHT22;38405;53.212;5.660;2023-06-22T05:33:43;18.20;99.90
52495;DHT22;38405;53.212;5.660;2023-06-22T05:36:09;18.20;99.90
52495;DHT22;38405;53.212;5.660;2023-06-22T05:38:35;18.20;99.90
52495;DHT22;38405;53.212;5.660;2023-06-22T05:41:02;18.30;99.90
52495;DHT22;38405;53.212;5.660;2023-06-22T05:43:27;18.30;99.90
52495;DHT22;38405;53.212;5.660;2023-06-22T05:45:53;18.40;99.90
52495;DHT22;38405;53.212;5.660;2023-06-22T05:48:19;18.50;99.90
52495;DHT22;38405;53.212;5.660;2023-06-22T05:50:44;18.60;99.90
52495;DHT22;38405;53.212;5.660;2023-06-22T05:53:10;18.70;99.90
52495;DHT22;38405;53.212;5.660;2023-06-22T05:55:36;18.80;99.90
52495;DHT22;38405;53.212;5.660;2023-06-22T05:58:02;19.00;99.90
52495;DHT22;38405;53.212;5.660;2023-06-22T06:00:31;19.00;99.90
52495;DHT22;38405;53.212;5.660;2023-06-22T06:02:56;19.00;99.90
52495;DHT22;38405;53.212;5.660;2023-06-22T06:05:22;19.10;99.90
52495;DHT22;38405;53.212;5.660;2023-06-22T06:07:50;19.10;99.90
52495;DHT22;38405;53.212;5.660;2023-06-22T06:10:16;19.10;99.90
52495;DHT22;38405;53.212;5.660;2023-06-22T06:12:42;19.30;99.90
52495;DHT22;38405;53.212;5.660;2023-06-22T06:15:08;19.30;99.90
52495;DHT22;38405;53.212;5.660;2023-06-22T06:17:33;19.40;99.90
52495;DHT22;38405;53.212;5.660;2023-06-22T06:19:59;19.60;99.90
52495;DHT22;38405;53.212;5.660;2023-06-22T06:22:26;19.80;99.90
52495;DHT22;38405;53.212;5.660;2023-06-22T06:24:51;20.10;99.90
52495;DHT22;38405;53.212;5.660;2023-06-22T06:27:17;20.50;99.90
52495;DHT22;38405;53.212;5.660;2023-06-22T06:29:45;21.00;99.90
52495;DHT22;38405;53.212;5.660;2023-06-22T06:32:13;21.50;99.90
52495;DHT22;38405;53.212;5.660;2023-06-22T06:34:39;22.10;99.90
52495;DHT22;38405;53.212;5.660;2023-06-22T06:37:05;22.90;99.90
52495;DHT22;38405;53.212;5.660;2023-06-22T06:39:31;23.70;99.90
52495;DHT22;38405;53.212;5.660;2023-06-22T06:41:57;24.60;99.90
52495;DHT22;38405;53.212;5.660;2023-06-22T06:44:22;25.40;99.90
52495;DHT22;38405;53.212;5.660;2023-06-22T06:46:48;26.10;99.90
52495;DHT22;38405;53.212;5.660;2023-06-22T06:49:14;26.10;99.90
52495;DHT22;38405;53.212;5.660;2023-06-22T06:51:39;26.50;99.90
52495;DHT22;38405;53.212;5.660;2023-06-22T06:54:05;27.10;99.90
52495;DHT22;38405;53.212;5.660;2023-06-22T06:56:31;27.80;99.90
52495;DHT22;38405;53.212;5.660;2023-06-22T06:58:58;28.30;99.90
52495;DHT22;38405;53.212;5.660;2023-06-22T07:01:24;28.20;99.90
52495;DHT22;38405;53.212;5.660;2023-06-22T07:03:50;28.20;99.90
52495;DHT22;38405;53.212;5.660;2023-06-22T07:06:16;28.30;99.90
52495;DHT22;38405;53.212;5.660;2023-06-22T07:08:42;28.30;99.90
52495;DHT22;38405;53.212;5.660;2023-06-22T07:11:11;28.40;99.90
52495;DHT22;38405;53.212;5.660;2023-06-22T07:13:39;28.60;99.90
52495;DHT22;38405;53.212;5.660;2023-06-22T07:16:05;29.00;99.90
52495;DHT22;38405;53.212;5.660;2023-06-22T07:18:30;29.20;99.90
52495;DHT22;38405;53.212;5.660;2023-06-22T07:20:56;29.10;99.90
52495;DHT22;38405;53.212;5.660;2023-06-22T07:23:22;29.00;99.90
52495;DHT22;38405;53.212;5.660;2023-06-22T07:25:47;29.10;99.90
52495;DHT22;38405;53.212;5.660;2023-06-22T07:28:13;29.20;99.90
52495;DHT22;38405;53.212;5.660;2023-06-22T07:30:38;29.50;99.90
52495;DHT22;38405;53.212;5.660;2023-06-22T07:33:04;29.90;99.90
52495;DHT22;38405;53.212;5.660;2023-06-22T07:35:33;30.20;99.90
52495;DHT22;38405;53.212;5.660;2023-06-22T07:37:59;29.60;99.90
52495;DHT22;38405;53.212;5.660;2023-06-22T07:40:25;29.10;99.90
52495;DHT22;38405;53.212;5.660;2023-06-22T07:42:51;28.90;99.90
52495;DHT22;38405;53.212;5.660;2023-06-22T07:45:18;29.10;99.90
52495;DHT22;38405;53.212;5.660;2023-06-22T07:47:43;29.10;99.90
52495;DHT22;38405;53.212;5.660;2023-06-22T07:50:10;29.30;99.90
52495;DHT22;38405;53.212;5.660;2023-06-22T07:52:36;29.60;99.90
52495;DHT22;38405;53.212;5.660;2023-06-22T07:55:02;30.20;99.90
52495;DHT22;38405;53.212;5.660;2023-06-22T07:57:28;30.60;99.90
52495;DHT22;38405;53.212;5.660;2023-06-22T08:00:03;30.50;99.90
52495;DHT22;38405;53.212;5.660;2023-06-22T08:02:40;30.50;99.90
52495;DHT22;38405;53.212;5.660;2023-06-22T08:05:07;30.60;99.90
52495;DHT22;38405;53.212;5.660;2023-06-22T08:07:34;30.60;99.90
52495;DHT22;38405;53.212;5.660;2023-06-22T08:10:03;30.60;99.90
52495;DHT22;38405;53.212;5.660;2023-06-22T08:12:29;30.50;99.60
52495;DHT22;38405;53.212;5.660;2023-06-22T08:14:55;30.60;99.60
52495;DHT22;38405;53.212;5.660;2023-06-22T08:17:22;30.50;99.40
52495;DHT22;38405;53.212;5.660;2023-06-22T08:19:48;30.40;99.30
52495;DHT22;38405;53.212;5.660;2023-06-22T08:22:15;30.10;99.20
52495;DHT22;38405;53.212;5.660;2023-06-22T08:24:40;30.00;99.30
52495;DHT22;38405;53.212;5.660;2023-06-22T08:27:10;30.20;99.30
52495;DHT22;38405;53.212;5.660;2023-06-22T08:29:40;30.20;98.30
52495;DHT22;38405;53.212;5.660;2023-06-22T08:32:11;30.10;99.20
52495;DHT22;38405;53.212;5.660;2023-06-22T08:34:37;30.00;98.90
52495;DHT22;38405;53.212;5.660;2023-06-22T08:37:03;30.10;98.80
52495;DHT22;38405;53.212;5.660;2023-06-22T08:39:32;29.80;98.90
52495;DHT22;38405;53.212;5.660;2023-06-22T08:41:57;29.90;99.10
52495;DHT22;38405;53.212;5.660;2023-06-22T08:44:23;29.70;98.70
52495;DHT22;38405;53.212;5.660;2023-06-22T08:46:49;29.70;98.80
52495;DHT22;38405;53.212;5.660;2023-06-22T08:49:14;30.10;98.90
52495;DHT22;38405;53.212;5.660;2023-06-22T08:51:40;30.40;98.40
52495;DHT22;38405;53.212;5.660;2023-06-22T08:54:06;30.60;98.10
52495;DHT22;38405;53.212;5.660;2023-06-22T08:56:32;30.50;97.70
52495;DHT22;38405;53.212;5.660;2023-06-22T08:58:57;30.10;97.60
52495;DHT22;38405;53.212;5.660;2023-06-22T09:01:23;30.00;97.70
52495;DHT22;38405;53.212;5.660;2023-06-22T09:03:49;30.00;97.50
52495;DHT22;38405;53.212;5.660;2023-06-22T09:06:22;30.20;97.10
52495;DHT22;38405;53.212;5.660;2023-06-22T09:08:48;30.40;95.80
52495;DHT22;38405;53.212;5.660;2023-06-22T09:11:14;30.20;96.90
52495;DHT22;38405;53.212;5.660;2023-06-22T09:13:40;30.40;96.60
52495;DHT22;38405;53.212;5.660;2023-06-22T09:16:05;30.50;96.50
52495;DHT22;38405;53.212;5.660;2023-06-22T09:18:33;30.60;96.00
52495;DHT22;38405;53.212;5.660;2023-06-22T09:20:59;30.10;95.90
52495;DHT22;38405;53.212;5.660;2023-06-22T09:23:24;29.90;96.10
52495;DHT22;38405;53.212;5.660;2023-06-22T09:25:50;30.00;95.90
52495;DHT22;38405;53.212;5.660;2023-06-22T09:28:15;30.30;95.70
52495;DHT22;38405;53.212;5.660;2023-06-22T09:30:43;30.40;95.50
52495;DHT22;38405;53.212;5.660;2023-06-22T09:33:09;30.50;95.20
52495;DHT22;38405;53.212;5.660;2023-06-22T09:35:35;30.20;95.40
52495;DHT22;38405;53.212;5.660;2023-06-22T09:38:00;30.20;95.40
52495;DHT22;38405;53.212;5.660;2023-06-22T09:40:26;30.40;95.40
52495;DHT22;38405;53.212;5.660;2023-06-22T09:42:52;30.20;95.10
52495;DHT22;38405;53.212;5.660;2023-06-22T09:45:17;29.80;94.80
52495;DHT22;38405;53.212;5.660;2023-06-22T09:47:43;29.40;94.60
52495;DHT22;38405;53.212;5.660;2023-06-22T09:50:09;29.20;95.00
52495;DHT22;38405;53.212;5.660;2023-06-22T09:52:35;29.00;95.10
52495;DHT22;38405;53.212;5.660;2023-06-22T09:55:00;29.00;95.30
52495;DHT22;38405;53.212;5.660;2023-06-22T09:57:26;28.80;95.40
52495;DHT22;38405;53.212;5.660;2023-06-22T09:59:52;28.80;94.80
52495;DHT22;38405;53.212;5.660;2023-06-22T10:02:17;28.70;95.20
52495;DHT22;38405;53.212;5.660;2023-06-22T10:04:43;28.80;95.30
52495;DHT22;38405;53.212;5.660;2023-06-22T10:07:09;28.50;95.30
52495;DHT22;38405;53.212;5.660;2023-06-22T10:09:34;28.50;95.10
52495;DHT22;38405;53.212;5.660;2023-06-22T10:12:00;28.50;94.90
52495;DHT22;38405;53.212;5.660;2023-06-22T10:14:26;28.20;95.20
52495;DHT22;38405;53.212;5.660;2023-06-22T10:16:53;28.30;95.20
52495;DHT22;38405;53.212;5.660;2023-06-22T10:19:18;28.00;95.30
52495;DHT22;38405;53.212;5.660;2023-06-22T10:21:44;27.70;95.70
52495;DHT22;38405;53.212;5.660;2023-06-22T10:24:10;27.70;95.80
52495;DHT22;38405;53.212;5.660;2023-06-22T10:26:36;27.70;95.90
52495;DHT22;38405;53.212;5.660;2023-06-22T10:29:03;27.70;95.80
52495;DHT22;38405;53.212;5.660;2023-06-22T10:31:28;27.70;95.50
52495;DHT22;38405;53.212;5.660;2023-06-22T10:33:55;27.80;95.60
52495;DHT22;38405;53.212;5.660;2023-06-22T10:36:23;27.90;95.50
52495;DHT22;38405;53.212;5.660;2023-06-22T10:38:49;28.00;95.00
52495;DHT22;38405;53.212;5.660;2023-06-22T10:41:15;27.90;95.50
52495;DHT22;38405;53.212;5.660;2023-06-22T10:43:41;27.90;95.70
52495;DHT22;38405;53.212;5.660;2023-06-22T10:46:07;27.90;95.80
52495;DHT22;38405;53.212;5.660;2023-06-22T10:48:33;27.60;95.90
52495;DHT22;38405;53.212;5.660;2023-06-22T10:50:59;27.60;95.90
52495;DHT22;38405;53.212;5.660;2023-06-22T10:53:24;27.60;95.90
52495;DHT22;38405;53.212;5.660;2023-06-22T10:55:50;27.60;96.00
52495;DHT22;38405;53.212;5.660;2023-06-22T10:58:18;27.30;95.80
52495;DHT22;38405;53.212;5.660;2023-06-22T11:00:44;27.10;95.60
52495;DHT22;38405;53.212;5.660;2023-06-22T11:03:10;26.90;95.70
52495;DHT22;38405;53.212;5.660;2023-06-22T11:05:36;26.60;95.80
52495;DHT22;38405;53.212;5.660;2023-06-22T11:08:01;26.50;95.90
52495;DHT22;38405;53.212;5.660;2023-06-22T11:10:27;26.40;96.10
52495;DHT22;38405;53.212;5.660;2023-06-22T11:12:52;26.70;96.50
52495;DHT22;38405;53.212;5.660;2023-06-22T11:15:19;26.70;96.40
52495;DHT22;38405;53.212;5.660;2023-06-22T11:17:44;26.60;96.40
52495;DHT22;38405;53.212;5.660;2023-06-22T11:20:11;26.40;96.40
52495;DHT22;38405;53.212;5.660;2023-06-22T11:22:38;26.50;96.70
52495;DHT22;38405;53.212;5.660;2023-06-22T11:25:05;26.60;96.60
52495;DHT22;38405;53.212;5.660;2023-06-22T11:27:31;26.60;96.50
52495;DHT22;38405;53.212;5.660;2023-06-22T11:29:57;26.50;96.40
52495;DHT22;38405;53.212;5.660;2023-06-22T11:32:23;26.50;96.50
52495;DHT22;38405;53.212;5.660;2023-06-22T11:34:48;26.60;96.60
52495;DHT22;38405;53.212;5.660;2023-06-22T11:37:14;26.70;96.10
52495;DHT22;38405;53.212;5.660;2023-06-22T11:39:43;26.60;96.10
52495;DHT22;38405;53.212;5.660;2023-06-22T11:42:10;26.60;95.90
52495;DHT22;38405;53.212;5.660;2023-06-22T11:44:35;26.70;96.20
52495;DHT22;38405;53.212;5.660;2023-06-22T11:47:01;26.90;96.00
52495;DHT22;38405;53.212;5.660;2023-06-22T11:49:32;27.10;96.00
52495;DHT22;38405;53.212;5.660;2023-06-22T11:51:57;27.20;95.90
52495;DHT22;38405;53.212;5.660;2023-06-22T11:54:23;27.20;95.30
52495;DHT22;38405;53.212;5.660;2023-06-22T11:56:49;27.10;95.70
52495;DHT22;38405;53.212;5.660;2023-06-22T11:59:14;27.10;95.70
52495;DHT22;38405;53.212;5.660;2023-06-22T12:01:40;27.10;95.40
52495;DHT22;38405;53.212;5.660;2023-06-22T12:04:06;26.90;95.30
52495;DHT22;38405;53.212;5.660;2023-06-22T12:06:32;26.60;95.20
52495;DHT22;38405;53.212;5.660;2023-06-22T12:08:58;26.50;95.30
52495;DHT22;38405;53.212;5.660;2023-06-22T12:11:24;26.60;95.60
52495;DHT22;38405;53.212;5.660;2023-06-22T12:13:50;26.80;95.30
52495;DHT22;38405;53.212;5.660;2023-06-22T12:16:15;27.00;95.30
52495;DHT22;38405;53.212;5.660;2023-06-22T12:18:41;27.10;95.10
52495;DHT22;38405;53.212;5.660;2023-06-22T12:21:07;27.10;94.80
52495;DHT22;38405;53.212;5.660;2023-06-22T12:23:33;27.20;94.80
52495;DHT22;38405;53.212;5.660;2023-06-22T12:25:58;27.20;94.60
52495;DHT22;38405;53.212;5.660;2023-06-22T12:28:25;27.00;94.50
52495;DHT22;38405;53.212;5.660;2023-06-22T12:30:51;27.10;94.50
52495;DHT22;38405;53.212;5.660;2023-06-22T12:33:17;27.00;94.10
52495;DHT22;38405;53.212;5.660;2023-06-22T12:35:43;27.00;94.10
52495;DHT22;38405;53.212;5.660;2023-06-22T12:38:10;26.70;93.90
52495;DHT22;38405;53.212;5.660;2023-06-22T12:40:36;26.40;94.00
52495;DHT22;38405;53.212;5.660;2023-06-22T12:43:02;26.40;94.50
52495;DHT22;38405;53.212;5.660;2023-06-22T12:45:28;26.40;94.40
52495;DHT22;38405;53.212;5.660;2023-06-22T12:47:57;26.30;94.30
52495;DHT22;38405;53.212;5.660;2023-06-22T12:50:22;26.40;94.40
52495;DHT22;38405;53.212;5.660;2023-06-22T12:52:48;26.50;94.20
52495;DHT22;38405;53.212;5.660;2023-06-22T12:55:14;26.50;94.00
52495;DHT22;38405;53.212;5.660;2023-06-22T12:57:39;26.40;93.80
52495;DHT22;38405;53.212;5.660;2023-06-22T13:00:05;26.30;93.80
52495;DHT22;38405;53.212;5.660;2023-06-22T13:02:33;26.10;93.50
52495;DHT22;38405;53.212;5.660;2023-06-22T13:04:59;25.90;93.40
52495;DHT22;38405;53.212;5.660;2023-06-22T13:07:24;25.80;93.70
52495;DHT22;38405;53.212;5.660;2023-06-22T13:09:50;25.70;93.60
52495;DHT22;38405;53.212;5.660;2023-06-22T13:12:17;25.60;93.70
52495;DHT22;38405;53.212;5.660;2023-06-22T13:14:42;25.50;93.70
52495;DHT22;38405;53.212;5.660;2023-06-22T13:17:09;25.40;93.70
52495;DHT22;38405;53.212;5.660;2023-06-22T13:19:34;25.30;93.90
52495;DHT22;38405;53.212;5.660;2023-06-22T13:22:00;25.30;94.30
52495;DHT22;38405;53.212;5.660;2023-06-22T13:24:28;25.10;94.40
52495;DHT22;38405;53.212;5.660;2023-06-22T13:26:53;24.90;94.80
52495;DHT22;38405;53.212;5.660;2023-06-22T13:29:20;24.90;94.90
52495;DHT22;38405;53.212;5.660;2023-06-22T13:31:46;24.80;94.90
52495;DHT22;38405;53.212;5.660;2023-06-22T13:34:11;24.70;94.90
52495;DHT22;38405;53.212;5.660;2023-06-22T13:36:38;24.50;94.80
52495;DHT22;38405;53.212;5.660;2023-06-22T13:39:03;24.40;94.90
52495;DHT22;38405;53.212;5.660;2023-06-22T13:41:29;24.40;95.10
52495;DHT22;38405;53.212;5.660;2023-06-22T13:43:55;24.40;95.30
52495;DHT22;38405;53.212;5.660;2023-06-22T13:46:21;24.40;95.20
52495;DHT22;38405;53.212;5.660;2023-06-22T13:48:46;24.40;95.00
52495;DHT22;38405;53.212;5.660;2023-06-22T13:51:12;24.30;94.90
52495;DHT22;38405;53.212;5.660;2023-06-22T13:53:38;24.20;94.50
52495;DHT22;38405;53.212;5.660;2023-06-22T13:56:03;24.00;94.40
52495;DHT22;38405;53.212;5.660;2023-06-22T13:58:29;23.90;94.50
52495;DHT22;38405;53.212;5.660;2023-06-22T14:00:55;23.90;94.40
52495;DHT22;38405;53.212;5.660;2023-06-22T14:03:20;23.80;94.10
52495;DHT22;38405;53.212;5.660;2023-06-22T14:05:46;23.80;94.30
52495;DHT22;38405;53.212;5.660;2023-06-22T14:08:12;23.80;94.00
52495;DHT22;38405;53.212;5.660;2023-06-22T14:10:38;23.70;93.70
52495;DHT22;38405;53.212;5.660;2023-06-22T14:13:03;23.50;93.80
52495;DHT22;38405;53.212;5.660;2023-06-22T14:15:31;23.40;93.90
52495;DHT22;38405;53.212;5.660;2023-06-22T14:17:57;23.20;93.90
52495;DHT22;38405;53.212;5.660;2023-06-22T14:20:23;23.20;93.90
52495;DHT22;38405;53.212;5.660;2023-06-22T14:22:48;23.20;94.00
52495;DHT22;38405;53.212;5.660;2023-06-22T14:25:14;23.10;94.00
52495;DHT22;38405;53.212;5.660;2023-06-22T14:27:40;23.00;94.00
52495;DHT22;38405;53.212;5.660;2023-06-22T14:30:06;23.00;94.00
52495;DHT22;38405;53.212;5.660;2023-06-22T14:32:32;22.90;94.00
52495;DHT22;38405;53.212;5.660;2023-06-22T14:34:57;22.80;94.30
52495;DHT22;38405;53.212;5.660;2023-06-22T14:37:23;22.70;94.40
52495;DHT22;38405;53.212;5.660;2023-06-22T14:39:49;22.70;94.70
52495;DHT22;38405;53.212;5.660;2023-06-22T14:42:14;22.60;95.10
52495;DHT22;38405;53.212;5.660;2023-06-22T14:44:40;22.60;95.30
52495;DHT22;38405;53.212;5.660;2023-06-22T14:47:06;22.60;95.50
52495;DHT22;38405;53.212;5.660;2023-06-22T14:49:32;22.60;95.80
52495;DHT22;38405;53.212;5.660;2023-06-22T14:51:57;22.70;96.00
52495;DHT22;38405;53.212;5.660;2023-06-22T14:54:23;22.70;96.20
52495;DHT22;38405;53.212;5.660;2023-06-22T14:56:50;22.70;96.20
52495;DHT22;38405;53.212;5.660;2023-06-22T14:59:16;22.60;95.90
52495;DHT22;38405;53.212;5.660;2023-06-22T15:01:41;22.60;95.70
52495;DHT22;38405;53.212;5.660;2023-06-22T15:04:07;22.60;95.80
52495;DHT22;38405;53.212;5.660;2023-06-22T15:06:33;22.50;95.70
52495;DHT22;38405;53.212;5.660;2023-06-22T15:08:58;22.50;95.80
52495;DHT22;38405;53.212;5.660;2023-06-22T15:11:24;22.50;95.80
52495;DHT22;38405;53.212;5.660;2023-06-22T15:13:50;22.50;95.70
52495;DHT22;38405;53.212;5.660;2023-06-22T15:16:15;22.50;95.80
52495;DHT22;38405;53.212;5.660;2023-06-22T15:18:41;22.50;95.70
52495;DHT22;38405;53.212;5.660;2023-06-22T15:21:07;22.50;95.80
52495;DHT22;38405;53.212;5.660;2023-06-22T15:23:33;22.50;96.00
52495;DHT22;38405;53.212;5.660;2023-06-22T15:26:02;22.50;96.20
52495;DHT22;38405;53.212;5.660;2023-06-22T15:28:28;22.60;96.60